createdAt,value
2022-08-01T00:01:16.901Z,49.517868687786816
2022-08-01T00:04:17.190Z,49.52803127354535
2022-08-01T00:07:17.153Z,49.3856287327487
2022-08-01T00:11:16.675Z,49.14697263961098
2022-08-01T00:14:17.080Z,47.87895115719283
2022-08-01T00:17:16.999Z,48.490061359326276
2022-08-01T00:21:16.561Z,49.227781999298045
2022-08-01T00:24:17.268Z,50.193498400595786
2022-08-01T00:27:17.259Z,50.2337740772877
2022-08-01T00:31:16.264Z,49.816763640824675
2022-08-01T00:34:16.751Z,50.220710197406305
2022-08-01T00:37:17.053Z,50.76532524301993
2022-08-01T00:41:15.800Z,51.78407763895792
2022-08-01T00:44:16.486Z,51.88274885971166
2022-08-01T01:01:17.266Z,52.80639938066479
2022-08-01T01:04:19.099Z,53.40316277051198
2022-08-01T01:07:25.385Z,52.93465757541083
2022-08-01T01:11:25.690Z,52.379437335081775
2022-08-01T01:14:28.923Z,51.79562381259884
2022-08-01T01:17:49.701Z,50.2814693110944
2022-08-01T01:21:35.333Z,50.58244349204434
2022-08-01T01:24:28.452Z,51.7609455952838
2022-08-01T01:27:26.643Z,52.611211092575935
2022-08-01T01:31:20.721Z,53.00433316278193
2022-08-01T01:34:21.307Z,53.56724161163762
2022-08-01T01:37:23.117Z,53.58949112911549
2022-08-01T01:41:18.233Z,53.43895803370868
2022-08-01T01:44:18.530Z,53.63740421672502
2022-08-01T01:47:17.644Z,53.739791805728984
2022-08-01T01:51:17.760Z,52.67624833861402
2022-08-01T01:54:17.309Z,52.90547167965344
2022-08-01T01:57:18.255Z,52.812000561256106
2022-08-01T02:01:58.524Z,52.5155811594303
2022-08-01T02:04:18.232Z,52.32467743125646
2022-08-01T02:07:21.610Z,52.36224593860699
2022-08-01T02:11:20.813Z,52.14379135733547
2022-08-01T02:14:20.179Z,52.4936312861966
2022-08-01T02:17:18.739Z,52.57384633616111
2022-08-01T02:21:25.276Z,51.79993009242113
2022-08-01T02:24:30.711Z,51.69037694582481
2022-08-01T02:27:23.679Z,52.175173159234056
2022-08-01T02:31:21.531Z,52.58956241827579
2022-08-01T02:34:19.285Z,52.4954930014031
2022-08-01T02:51:19.675Z,52.90588200396337
2022-08-01T02:54:18.749Z,53.25619793922727
2022-08-01T02:57:18.910Z,53.57644911334332
2022-08-01T03:01:19.895Z,52.85052828121981
2022-08-01T03:04:19.777Z,52.953373222293784
2022-08-01T03:07:17.687Z,53.51904332105323
2022-08-01T03:11:17.337Z,53.32976202702244
2022-08-01T03:14:20.812Z,53.54673425593349
2022-08-01T03:17:21.214Z,53.69451752874505
2022-08-01T03:21:19.962Z,53.351407305827685
2022-08-01T03:24:18.152Z,53.35105796456334
2022-08-01T03:27:19.235Z,53.037445860216025
2022-08-01T03:31:17.498Z,53.36581596534988
2022-08-01T03:34:17.527Z,53.71735676301539
2022-08-01T03:37:24.333Z,53.30864624078368
2022-08-01T03:41:21.309Z,53.280421071351064
2022-08-01T03:44:23.089Z,53.56207665914765
2022-08-01T03:47:18.066Z,53.71609692845006
2022-08-01T03:51:19.037Z,53.75678297146381
2022-08-01T03:54:23.732Z,53.88231081608908
2022-08-01T03:57:35.034Z,54.008883537718155
2022-08-01T04:01:17.796Z,53.6983240600815
2022-08-01T04:04:17.317Z,53.63777819028706
2022-08-01T04:07:25.155Z,53.66497647445728
2022-08-01T04:11:16.547Z,53.487826418761294
2022-08-01T04:14:16.985Z,53.9672107755327
2022-08-01T04:17:17.013Z,53.88288460318886
2022-08-01T04:21:20.421Z,53.629231317903646
2022-08-01T04:24:19.758Z,53.7374281779046
2022-08-01T04:27:50.052Z,53.74086411728765
2022-08-01T04:31:19.668Z,53.124609006634095
2022-08-01T04:34:25.628Z,52.4155828229088
2022-08-01T04:37:23.622Z,52.34636500425773
2022-08-01T04:41:17.458Z,52.95599177979071
2022-08-01T04:44:16.537Z,53.64612086666614
2022-08-01T04:47:16.778Z,54.090314728542864
2022-08-01T04:51:18.007Z,54.653943676817114
2022-08-01T04:54:16.818Z,54.77893995125627
2022-08-01T04:57:16.861Z,54.76238297548204
2022-08-01T05:01:17.286Z,54.766229616848165
2022-08-01T05:04:16.690Z,55.818964067623476
2022-08-01T05:07:17.021Z,56.252531878443364
2022-08-01T05:11:16.311Z,54.64608606133607
2022-08-01T05:14:17.826Z,54.33422047896283
2022-08-01T05:17:17.841Z,54.04689367055307
2022-08-01T05:21:17.146Z,53.60465823915697
2022-08-01T05:24:17.700Z,52.632551109145744
2022-08-01T05:27:17.006Z,53.55259216565608
2022-08-01T05:31:16.068Z,54.77595946932027
2022-08-01T05:34:17.027Z,54.639791965561585
2022-08-01T05:37:17.296Z,53.889158524309394
2022-08-01T05:41:16.590Z,53.73320115694505
2022-08-01T05:44:17.498Z,54.527289956859875
2022-08-01T05:47:17.556Z,55.40589213261506
2022-08-01T05:51:16.627Z,55.168586530146456
2022-08-01T05:54:17.108Z,55.29070837244467
2022-08-01T05:57:16.512Z,55.88395196323546
2022-08-01T06:01:19.722Z,54.64077853098384
2022-08-01T06:04:17.520Z,54.49068083870488
2022-08-01T06:07:17.162Z,54.67096896558506
2022-08-01T06:11:16.818Z,54.59824003185236
2022-08-01T06:14:16.847Z,54.060901650088816
2022-08-01T06:17:17.260Z,54.41247636628117
2022-08-01T06:21:17.817Z,53.11747394149257
2022-08-01T06:24:18.285Z,52.729694232295
2022-08-01T06:27:22.024Z,52.44349058649329
2022-08-01T06:31:17.093Z,52.0599493589105
2022-08-01T06:34:17.396Z,51.986254893432154
2022-08-01T06:37:17.250Z,50.90006708751293
2022-08-01T06:41:38.258Z,50.44001098242305
2022-08-01T06:44:17.791Z,50.69672132363656
2022-08-01T06:47:18.294Z,49.79571338026732
2022-08-01T06:51:18.843Z,49.87380452562026
2022-08-01T06:54:18.320Z,50.94138978103313
2022-08-01T06:57:16.584Z,51.08307972396578
2022-08-01T07:01:16.049Z,50.65658019256447
2022-08-01T07:04:16.156Z,50.675723026982894
2022-08-01T07:07:16.489Z,49.82653402757547
2022-08-01T07:11:20.136Z,48.575831440602755
2022-08-01T07:14:18.816Z,47.160855530673025
2022-08-01T07:17:19.243Z,47.79516613099558
2022-08-01T07:21:39.303Z,45.75688849806637
2022-08-01T07:24:16.319Z,45.25785697925485
2022-08-01T07:27:25.527Z,44.91561270789841
2022-08-01T07:31:16.769Z,44.57331030529389
2022-08-01T07:34:17.441Z,43.561127500747645
2022-08-01T07:37:17.646Z,43.43953092648169
2022-08-01T07:41:16.914Z,41.37104004784649
2022-08-01T07:44:16.665Z,40.8753954993575
2022-08-01T07:47:23.691Z,39.86016934993596
2022-08-01T07:51:16.623Z,39.53862614919692
2022-08-01T07:54:17.132Z,38.58647903131992
2022-08-01T07:57:17.317Z,37.86733987362271
2022-08-01T08:01:20.010Z,37.7378643559475
2022-08-01T08:11:15.961Z,32.585653518291046
2022-08-01T08:14:18.478Z,33.62037087065737
2022-08-01T08:21:16.146Z,33.498674515991304
2022-08-01T08:24:26.193Z,33.6378006133846
2022-08-01T08:31:25.444Z,37.74739966970458
2022-08-01T08:34:16.634Z,38.34999775023243
2022-08-01T08:37:16.560Z,38.59517064197359
2022-08-01T08:41:20.949Z,36.2611993173709
2022-08-01T08:44:18.678Z,35.894475009716835
2022-08-01T08:51:39.636Z,36.01092620662409
2022-08-01T08:54:41.524Z,36.103605355408774
2022-08-01T08:57:43.726Z,36.09649409867071
2022-08-01T09:01:23.042Z,34.944091485516836
2022-08-01T09:04:17.528Z,33.63201975230225
2022-08-01T09:07:16.683Z,33.21838895332304
2022-08-01T09:11:18.983Z,33.662383642401764
2022-08-01T09:21:36.399Z,33.49018699216122
2022-08-01T09:24:38.007Z,32.87531922759881
2022-08-01T09:27:38.624Z,31.72390303754513
2022-08-01T09:31:18.530Z,32.42751358371705
2022-08-01T09:34:24.975Z,32.35345775801931
2022-08-01T09:37:37.378Z,31.83112369351306
2022-08-01T09:41:45.470Z,31.865339901936572
2022-08-01T09:44:39.900Z,32.145464204021884
2022-08-01T09:52:00.236Z,30.308178362086853
2022-08-01T09:54:32.735Z,29.269368022684464
2022-08-01T09:57:28.636Z,29.00974445293772
2022-08-01T10:01:17.192Z,29.112112858326224
2022-08-01T10:04:22.109Z,29.656829276958003
2022-08-01T10:07:58.060Z,28.331451923212626
2022-08-01T10:11:43.062Z,28.133348899295637
2022-08-01T10:21:18.349Z,28.28143633091691
2022-08-01T10:31:19.415Z,27.271168243612482
2022-08-01T10:38:56.652Z,27.968469605104865
2022-08-01T10:41:27.599Z,27.19608962800592
2022-08-01T10:51:52.599Z,27.166233806935644
2022-08-01T10:54:40.196Z,26.878375921571283
2022-08-01T10:57:43.106Z,26.148504838868188
2022-08-01T11:01:21.304Z,27.342674649367314
2022-08-01T11:11:17.309Z,26.059482428999857
2022-08-01T11:22:25.176Z,26.53027771628047
2022-08-01T11:41:36.953Z,23.408399753847885
2022-08-01T11:51:42.410Z,21.024728947716525
2022-08-01T12:01:38.801Z,21.99527989244525
2022-08-01T12:11:16.619Z,21.23579427503219
2022-08-01T12:21:16.584Z,21.65186349323703
2022-08-01T12:31:16.893Z,20.58754317260941
2022-08-01T12:41:17.692Z,19.95314952684355
2022-08-01T12:51:16.257Z,20.990910399945502
2022-08-01T13:01:25.305Z,19.827384827537205
2022-08-01T13:11:18.427Z,20.67224280060843
2022-08-01T13:21:18.379Z,19.600075174010318
2022-08-01T13:31:17.213Z,17.345238911740683
2022-08-01T13:41:18.152Z,18.192372211383184
2022-08-01T13:51:22.195Z,17.72580383682577
2022-08-01T14:01:17.467Z,18.61430337074996
2022-08-01T14:11:18.295Z,18.30779896869728
2022-08-01T14:21:17.152Z,18.865163342307483
2022-08-01T14:31:17.565Z,19.682860123257665
2022-08-01T14:41:16.194Z,21.100383492992517
2022-08-01T14:51:17.708Z,21.180865839653304
2022-08-01T15:01:16.513Z,22.022962393275265
2022-08-01T15:21:34.419Z,22.732547037042576
2022-08-01T15:31:15.745Z,24.325323767933657
2022-08-01T15:41:16.321Z,25.32221032258426
2022-08-01T15:51:15.951Z,24.988172728443065
2022-08-01T16:01:17.054Z,25.383655117403457
2022-08-01T16:11:16.716Z,25.8592777487348
2022-08-01T16:21:16.854Z,26.660533465984926
2022-08-01T17:01:59.950Z,27.986193364561565
2022-08-01T17:11:16.852Z,28.540452916556116
2022-08-01T17:21:16.281Z,29.35135025085995
2022-08-01T17:31:16.568Z,28.986177243666702
2022-08-01T17:41:16.202Z,30.132997697713925
2022-08-01T17:51:22.160Z,30.21437582784284
2022-08-01T18:01:17.851Z,30.742041347929238
2022-08-01T18:11:16.786Z,31.704876495818667
2022-08-01T18:41:52.248Z,33.880294369270395
2022-08-01T18:44:58.572Z,34.251110987206644
2022-08-01T18:47:53.444Z,34.26970551031054
2022-08-01T19:01:18.377Z,35.772208788327255
2022-08-01T19:04:19.778Z,36.259363551406096
2022-08-01T19:07:39.505Z,36.23612230408974
2022-08-01T19:11:17.778Z,36.40408120793259
2022-08-01T19:14:18.494Z,36.588160407071015
2022-08-01T19:17:18.519Z,36.956432488295846
2022-08-01T19:21:18.338Z,37.3667888360756
2022-08-01T19:24:29.609Z,37.61598268465651
2022-08-01T19:31:22.330Z,38.23883902825825
2022-08-01T19:34:20.105Z,38.49329013470448
2022-08-01T19:37:18.716Z,38.74196986329651
2022-08-01T19:41:18.740Z,38.84310143616857
2022-08-01T19:44:23.449Z,39.07368350669243
2022-08-01T19:47:19.414Z,39.24513370102882
2022-08-01T19:51:18.693Z,39.22811617347079
2022-08-01T19:54:22.529Z,39.29905524080249
2022-08-01T19:57:21.074Z,39.89018375153196
2022-08-01T20:01:18.493Z,39.9964980284963
2022-08-01T20:04:19.204Z,40.02605429632415
2022-08-01T20:07:19.436Z,40.191320856729696
2022-08-01T20:11:21.951Z,40.49816338471999
2022-08-01T20:14:21.297Z,40.58063886132861
2022-08-01T20:17:20.107Z,40.74581946487353
2022-08-01T20:21:18.901Z,41.0346797327734
2022-08-01T20:41:21.488Z,41.799828257392235
2022-08-01T20:44:20.015Z,42.07601810324259
2022-08-01T20:47:18.755Z,42.1053935708897
2022-08-01T21:01:24.080Z,43.173416977944164
2022-08-01T21:04:37.907Z,43.208382931486476
2022-08-01T21:51:30.017Z,45.21745418623612
2022-08-01T21:54:26.111Z,45.36921462374443
2022-08-01T21:57:31.564Z,45.1124782134936
2022-08-01T22:01:26.220Z,45.32241715020249
2022-08-01T22:04:21.636Z,45.67227498060964
2022-08-01T22:07:18.735Z,45.992929493958215
2022-08-01T22:11:20.098Z,46.02174942541598
2022-08-01T22:14:18.925Z,46.202501208913375
2022-08-01T22:17:20.929Z,46.58677715297357
2022-08-01T22:21:17.259Z,46.480723089300376
2022-08-01T22:24:17.634Z,46.49762303134225
2022-08-01T22:28:08.024Z,46.7069789930118
2022-08-01T22:31:17.535Z,46.846321259010736
2022-08-01T22:34:17.543Z,46.90961846662669
2022-08-01T22:37:16.648Z,46.95549870762232
2022-08-01T22:41:18.260Z,46.85557589847895
2022-08-01T22:44:25.578Z,46.95993077686604
2022-08-01T22:47:27.452Z,47.02384190862016
2022-08-01T22:51:37.422Z,47.05312905735745
2022-08-01T22:54:26.328Z,46.866038815222346
2022-08-01T22:57:28.323Z,47.01103071184709
2022-08-01T23:01:21.153Z,47.30181151871798
2022-08-01T23:04:21.311Z,48.01218628409593
2022-08-01T23:07:21.994Z,47.99516164484106
2022-08-01T23:11:19.213Z,48.26763765720467
2022-08-01T23:14:20.915Z,48.41190119142598
2022-08-01T23:17:26.385Z,48.19020858162471
2022-08-01T23:21:17.731Z,48.35199175368446
2022-08-01T23:24:17.026Z,48.40398970508386
2022-08-01T23:27:51.403Z,48.50241019678614
2022-08-01T23:31:17.020Z,48.37411075142263
2022-08-01T23:34:19.956Z,48.629033614374364
2022-08-01T23:37:17.754Z,49.070644695027255
2022-08-01T23:41:16.703Z,49.64412097183138
